sensor_id;sensor_type;location;lat;lon;timestamp;P1;durP1;ratioP1;P2;durP2;ratioP2
50012;SDS011;35901;48.694;9.476;2023-05-10T00:00:24;2.40;;;2.20;;
50012;SDS011;35901;48.694;9.476;2023-05-10T00:02:50;1.80;;;1.70;;
50012;SDS011;35901;48.694;9.476;2023-05-10T00:05:16;1.90;;;1.80;;
50012;SDS011;35901;48.694;9.476;2023-05-10T00:07:42;1.90;;;1.80;;
50012;SDS011;35901;48.694;9.476;2023-05-10T00:10:09;1.90;;;1.80;;
50012;SDS011;35901;48.694;9.476;2023-05-10T00:12:35;1.77;;;1.67;;
50012;SDS011;35901;48.694;9.476;2023-05-10T00:15:01;1.57;;;1.47;;
50012;SDS011;35901;48.694;9.476;2023-05-10T00:17:28;1.80;;;1.50;;
50012;SDS011;35901;48.694;9.476;2023-05-10T00:19:53;1.60;;;1.50;;
50012;SDS011;35901;48.694;9.476;2023-05-10T00:22:19;1.60;;;1.50;;
50012;SDS011;35901;48.694;9.476;2023-05-10T00:24:45;1.87;;;1.50;;
50012;SDS011;35901;48.694;9.476;2023-05-10T00:27:11;2.87;;;1.70;;
50012;SDS011;35901;48.694;9.476;2023-05-10T00:29:37;1.47;;;1.37;;
50012;SDS011;35901;48.694;9.476;2023-05-10T00:32:02;1.70;;;1.60;;
50012;SDS011;35901;48.694;9.476;2023-05-10T00:34:28;1.60;;;1.60;;
50012;SDS011;35901;48.694;9.476;2023-05-10T00:36:54;1.67;;;1.57;;
50012;SDS011;35901;48.694;9.476;2023-05-10T00:39:20;2.07;;;1.80;;
50012;SDS011;35901;48.694;9.476;2023-05-10T00:41:46;1.70;;;1.60;;
50012;SDS011;35901;48.694;9.476;2023-05-10T00:44:11;1.80;;;1.70;;
50012;SDS011;35901;48.694;9.476;2023-05-10T00:46:37;2.90;;;2.13;;
50012;SDS011;35901;48.694;9.476;2023-05-10T00:49:03;2.47;;;2.00;;
50012;SDS011;35901;48.694;9.476;2023-05-10T00:51:29;1.90;;;1.80;;
50012;SDS011;35901;48.694;9.476;2023-05-10T00:53:56;2.20;;;2.10;;
50012;SDS011;35901;48.694;9.476;2023-05-10T00:56:22;2.60;;;2.40;;
50012;SDS011;35901;48.694;9.476;2023-05-10T00:58:49;3.00;;;2.10;;
50012;SDS011;35901;48.694;9.476;2023-05-10T01:01:15;2.40;;;2.13;;
50012;SDS011;35901;48.694;9.476;2023-05-10T01:03:41;2.30;;;2.20;;
50012;SDS011;35901;48.694;9.476;2023-05-10T01:06:07;2.70;;;2.50;;
50012;SDS011;35901;48.694;9.476;2023-05-10T01:08:35;2.47;;;2.27;;
50012;SDS011;35901;48.694;9.476;2023-05-10T01:11:01;2.10;;;2.00;;
50012;SDS011;35901;48.694;9.476;2023-05-10T01:16:04;2.20;;;2.00;;
50012;SDS011;35901;48.694;9.476;2023-05-10T01:18:33;2.07;;;1.97;;
50012;SDS011;35901;48.694;9.476;2023-05-10T01:23:55;1.93;;;1.73;;
50012;SDS011;35901;48.694;9.476;2023-05-10T01:32:44;1.57;;;1.47;;
50012;SDS011;35901;48.694;9.476;2023-05-10T01:35:37;1.50;;;1.40;;
50012;SDS011;35901;48.694;9.476;2023-05-10T01:41:07;1.70;;;1.60;;
50012;SDS011;35901;48.694;9.476;2023-05-10T01:46:20;1.93;;;1.40;;
50012;SDS011;35901;48.694;9.476;2023-05-10T01:48:55;1.40;;;1.33;;
50012;SDS011;35901;48.694;9.476;2023-05-10T01:51:23;1.20;;;1.20;;
50012;SDS011;35901;48.694;9.476;2023-05-10T01:53:54;1.10;;;1.00;;
50012;SDS011;35901;48.694;9.476;2023-05-10T01:56:29;1.43;;;1.20;;
50012;SDS011;35901;48.694;9.476;2023-05-10T01:58:58;1.40;;;1.13;;
50012;SDS011;35901;48.694;9.476;2023-05-10T02:01:26;1.07;;;1.07;;
50012;SDS011;35901;48.694;9.476;2023-05-10T02:03:53;1.10;;;1.10;;
50012;SDS011;35901;48.694;9.476;2023-05-10T02:06:20;1.20;;;1.10;;
50012;SDS011;35901;48.694;9.476;2023-05-10T02:08:49;1.10;;;1.10;;
50012;SDS011;35901;48.694;9.476;2023-05-10T02:11:17;1.43;;;1.17;;
50012;SDS011;35901;48.694;9.476;2023-05-10T02:13:44;0.90;;;0.90;;
50012;SDS011;35901;48.694;9.476;2023-05-10T02:16:12;0.87;;;0.87;;
50012;SDS011;35901;48.694;9.476;2023-05-10T02:18:40;1.70;;;0.90;;
50012;SDS011;35901;48.694;9.476;2023-05-10T02:21:06;1.07;;;1.07;;
50012;SDS011;35901;48.694;9.476;2023-05-10T02:23:37;0.90;;;0.90;;
50012;SDS011;35901;48.694;9.476;2023-05-10T02:26:03;1.37;;;1.00;;
50012;SDS011;35901;48.694;9.476;2023-05-10T02:28:31;0.90;;;0.90;;
50012;SDS011;35901;48.694;9.476;2023-05-10T02:30:58;1.67;;;0.80;;
50012;SDS011;35901;48.694;9.476;2023-05-10T02:33:24;0.83;;;0.83;;
50012;SDS011;35901;48.694;9.476;2023-05-10T02:35:52;0.90;;;0.80;;
50012;SDS011;35901;48.694;9.476;2023-05-10T02:38:18;0.90;;;0.90;;
50012;SDS011;35901;48.694;9.476;2023-05-10T02:40:47;1.70;;;0.90;;
50012;SDS011;35901;48.694;9.476;2023-05-10T02:43:14;1.10;;;1.00;;
50012;SDS011;35901;48.694;9.476;2023-05-10T02:45:42;1.40;;;0.83;;
50012;SDS011;35901;48.694;9.476;2023-05-10T02:48:09;1.33;;;0.90;;
50012;SDS011;35901;48.694;9.476;2023-05-10T02:50:35;0.87;;;0.87;;
50012;SDS011;35901;48.694;9.476;2023-05-10T02:53:06;0.80;;;0.80;;
50012;SDS011;35901;48.694;9.476;2023-05-10T02:55:40;0.90;;;0.90;;
50012;SDS011;35901;48.694;9.476;2023-05-10T02:58:08;1.00;;;1.00;;
50012;SDS011;35901;48.694;9.476;2023-05-10T03:00:34;1.43;;;0.70;;
50012;SDS011;35901;48.694;9.476;2023-05-10T03:03:01;1.27;;;0.80;;
50012;SDS011;35901;48.694;9.476;2023-05-10T03:05:27;3.17;;;0.90;;
50012;SDS011;35901;48.694;9.476;2023-05-10T03:07:53;3.53;;;1.17;;
50012;SDS011;35901;48.694;9.476;2023-05-10T03:10:19;1.80;;;1.00;;
50012;SDS011;35901;48.694;9.476;2023-05-10T03:15:47;0.93;;;0.93;;
50012;SDS011;35901;48.694;9.476;2023-05-10T03:18:45;0.90;;;0.90;;
50012;SDS011;35901;48.694;9.476;2023-05-10T03:21:17;1.00;;;1.00;;
50012;SDS011;35901;48.694;9.476;2023-05-10T03:23:53;1.00;;;1.00;;
50012;SDS011;35901;48.694;9.476;2023-05-10T03:26:26;1.33;;;1.10;;
50012;SDS011;35901;48.694;9.476;2023-05-10T03:29:01;1.00;;;1.00;;
50012;SDS011;35901;48.694;9.476;2023-05-10T03:31:28;1.07;;;1.00;;
50012;SDS011;35901;48.694;9.476;2023-05-10T03:33:54;1.70;;;1.00;;
50012;SDS011;35901;48.694;9.476;2023-05-10T03:36:23;1.83;;;1.20;;
50012;SDS011;35901;48.694;9.476;2023-05-10T03:38:50;1.13;;;1.13;;
50012;SDS011;35901;48.694;9.476;2023-05-10T03:41:16;2.27;;;1.33;;
50012;SDS011;35901;48.694;9.476;2023-05-10T03:43:42;1.53;;;1.30;;
50012;SDS011;35901;48.694;9.476;2023-05-10T03:46:07;1.30;;;1.30;;
50012;SDS011;35901;48.694;9.476;2023-05-10T03:48:36;2.70;;;1.50;;
50012;SDS011;35901;48.694;9.476;2023-05-10T03:51:02;1.50;;;1.40;;
50012;SDS011;35901;48.694;9.476;2023-05-10T03:53:28;2.00;;;1.37;;
50012;SDS011;35901;48.694;9.476;2023-05-10T03:55:53;1.40;;;1.40;;
50012;SDS011;35901;48.694;9.476;2023-05-10T03:58:19;2.43;;;1.60;;
50012;SDS011;35901;48.694;9.476;2023-05-10T04:00:45;1.43;;;1.33;;
50012;SDS011;35901;48.694;9.476;2023-05-10T04:03:12;1.73;;;1.63;;
50012;SDS011;35901;48.694;9.476;2023-05-10T04:05:38;2.00;;;1.50;;
50012;SDS011;35901;48.694;9.476;2023-05-10T04:08:05;1.60;;;1.50;;
50012;SDS011;35901;48.694;9.476;2023-05-10T04:10:31;1.90;;;1.80;;
50012;SDS011;35901;48.694;9.476;2023-05-10T04:12:57;1.60;;;1.50;;
50012;SDS011;35901;48.694;9.476;2023-05-10T04:15:23;1.30;;;1.30;;
50012;SDS011;35901;48.694;9.476;2023-05-10T04:17:48;2.10;;;1.60;;
50012;SDS011;35901;48.694;9.476;2023-05-10T04:20:15;1.50;;;1.30;;
50012;SDS011;35901;48.694;9.476;2023-05-10T04:22:41;2.00;;;1.80;;
50012;SDS011;35901;48.694;9.476;2023-05-10T04:25:06;2.03;;;1.60;;
50012;SDS011;35901;48.694;9.476;2023-05-10T04:27:32;1.50;;;1.50;;
50012;SDS011;35901;48.694;9.476;2023-05-10T04:29:58;1.63;;;1.60;;
50012;SDS011;35901;48.694;9.476;2023-05-10T04:32:24;1.40;;;1.30;;
50012;SDS011;35901;48.694;9.476;2023-05-10T04:34:49;1.50;;;1.40;;
50012;SDS011;35901;48.694;9.476;2023-05-10T04:37:18;1.97;;;1.50;;
50012;SDS011;35901;48.694;9.476;2023-05-10T04:39:46;1.57;;;1.47;;
50012;SDS011;35901;48.694;9.476;2023-05-10T04:42:11;1.93;;;1.80;;
50012;SDS011;35901;48.694;9.476;2023-05-10T04:44:40;1.60;;;1.50;;
50012;SDS011;35901;48.694;9.476;2023-05-10T04:47:06;4.07;;;1.40;;
50012;SDS011;35901;48.694;9.476;2023-05-10T04:49:32;1.70;;;1.60;;
50012;SDS011;35901;48.694;9.476;2023-05-10T04:51:57;1.50;;;1.40;;
50012;SDS011;35901;48.694;9.476;2023-05-10T04:54:23;1.57;;;1.47;;
50012;SDS011;35901;48.694;9.476;2023-05-10T04:56:49;2.93;;;1.77;;
50012;SDS011;35901;48.694;9.476;2023-05-10T04:59:15;1.93;;;1.83;;
50012;SDS011;35901;48.694;9.476;2023-05-10T05:01:40;1.80;;;1.70;;
50012;SDS011;35901;48.694;9.476;2023-05-10T05:04:06;1.80;;;1.70;;
50012;SDS011;35901;48.694;9.476;2023-05-10T05:06:32;1.63;;;1.60;;
50012;SDS011;35901;48.694;9.476;2023-05-10T05:08:57;1.67;;;1.57;;
50012;SDS011;35901;48.694;9.476;2023-05-10T05:11:23;1.97;;;1.87;;
50012;SDS011;35901;48.694;9.476;2023-05-10T05:13:48;1.90;;;1.80;;
50012;SDS011;35901;48.694;9.476;2023-05-10T05:16:14;1.83;;;1.73;;
50012;SDS011;35901;48.694;9.476;2023-05-10T05:18:40;1.80;;;1.70;;
50012;SDS011;35901;48.694;9.476;2023-05-10T05:21:18;1.90;;;1.80;;
50012;SDS011;35901;48.694;9.476;2023-05-10T05:23:45;1.70;;;1.60;;
50012;SDS011;35901;48.694;9.476;2023-05-10T05:26:11;2.63;;;2.00;;
50012;SDS011;35901;48.694;9.476;2023-05-10T05:28:36;1.80;;;1.70;;
50012;SDS011;35901;48.694;9.476;2023-05-10T05:31:06;1.80;;;1.70;;
50012;SDS011;35901;48.694;9.476;2023-05-10T05:33:32;1.70;;;1.60;;
50012;SDS011;35901;48.694;9.476;2023-05-10T05:36:04;2.43;;;1.80;;
50012;SDS011;35901;48.694;9.476;2023-05-10T05:38:31;1.90;;;1.80;;
50012;SDS011;35901;48.694;9.476;2023-05-10T05:40:56;1.90;;;1.80;;
50012;SDS011;35901;48.694;9.476;2023-05-10T05:43:22;1.90;;;1.80;;
50012;SDS011;35901;48.694;9.476;2023-05-10T05:45:48;2.10;;;2.00;;
50012;SDS011;35901;48.694;9.476;2023-05-10T05:48:14;1.80;;;1.70;;
50012;SDS011;35901;48.694;9.476;2023-05-10T05:50:40;1.83;;;1.73;;
50012;SDS011;35901;48.694;9.476;2023-05-10T05:53:05;2.03;;;1.93;;
50012;SDS011;35901;48.694;9.476;2023-05-10T05:55:31;2.27;;;2.17;;
50012;SDS011;35901;48.694;9.476;2023-05-10T05:57:57;2.30;;;2.10;;
50012;SDS011;35901;48.694;9.476;2023-05-10T06:00:23;3.50;;;1.77;;
50012;SDS011;35901;48.694;9.476;2023-05-10T06:02:49;2.53;;;2.33;;
50012;SDS011;35901;48.694;9.476;2023-05-10T06:05:14;2.13;;;2.03;;
50012;SDS011;35901;48.694;9.476;2023-05-10T06:07:40;2.77;;;2.13;;
50012;SDS011;35901;48.694;9.476;2023-05-10T06:10:09;1.70;;;1.60;;
50012;SDS011;35901;48.694;9.476;2023-05-10T06:12:35;2.97;;;1.53;;
50012;SDS011;35901;48.694;9.476;2023-05-10T06:15:01;1.47;;;1.40;;
50012;SDS011;35901;48.694;9.476;2023-05-10T06:17:29;1.80;;;1.70;;
50012;SDS011;35901;48.694;9.476;2023-05-10T06:19:55;1.93;;;1.43;;
50012;SDS011;35901;48.694;9.476;2023-05-10T06:22:21;1.87;;;1.67;;
50012;SDS011;35901;48.694;9.476;2023-05-10T06:24:48;1.77;;;1.50;;
50012;SDS011;35901;48.694;9.476;2023-05-10T06:27:14;1.80;;;1.70;;
50012;SDS011;35901;48.694;9.476;2023-05-10T06:29:39;1.33;;;1.33;;
50012;SDS011;35901;48.694;9.476;2023-05-10T06:32:05;1.60;;;1.50;;
50012;SDS011;35901;48.694;9.476;2023-05-10T06:34:31;1.70;;;1.60;;
50012;SDS011;35901;48.694;9.476;2023-05-10T06:36:57;1.60;;;1.50;;
50012;SDS011;35901;48.694;9.476;2023-05-10T06:39:22;1.30;;;1.30;;
50012;SDS011;35901;48.694;9.476;2023-05-10T06:41:48;1.43;;;1.40;;
50012;SDS011;35901;48.694;9.476;2023-05-10T06:44:14;1.93;;;1.40;;
50012;SDS011;35901;48.694;9.476;2023-05-10T06:46:40;1.67;;;1.50;;
50012;SDS011;35901;48.694;9.476;2023-05-10T06:49:06;2.70;;;1.60;;
50012;SDS011;35901;48.694;9.476;2023-05-10T06:51:32;1.50;;;1.40;;
50012;SDS011;35901;48.694;9.476;2023-05-10T06:53:58;1.90;;;1.50;;
50012;SDS011;35901;48.694;9.476;2023-05-10T06:56:23;2.77;;;1.60;;
50012;SDS011;35901;48.694;9.476;2023-05-10T06:58:49;3.30;;;1.80;;
50012;SDS011;35901;48.694;9.476;2023-05-10T07:01:14;2.67;;;1.50;;
50012;SDS011;35901;48.694;9.476;2023-05-10T07:03:40;1.47;;;1.40;;
50012;SDS011;35901;48.694;9.476;2023-05-10T07:06:06;1.40;;;1.30;;
50012;SDS011;35901;48.694;9.476;2023-05-10T07:08:35;1.40;;;1.30;;
50012;SDS011;35901;48.694;9.476;2023-05-10T07:11:02;1.30;;;1.30;;
50012;SDS011;35901;48.694;9.476;2023-05-10T07:13:29;1.40;;;1.30;;
50012;SDS011;35901;48.694;9.476;2023-05-10T07:15:58;2.50;;;1.20;;
50012;SDS011;35901;48.694;9.476;2023-05-10T07:18:24;1.40;;;1.30;;
50012;SDS011;35901;48.694;9.476;2023-05-10T07:20:50;1.20;;;1.20;;
50012;SDS011;35901;48.694;9.476;2023-05-10T07:23:16;1.73;;;1.17;;
50012;SDS011;35901;48.694;9.476;2023-05-10T07:25:48;1.47;;;1.30;;
50012;SDS011;35901;48.694;9.476;2023-05-10T07:28:17;1.40;;;1.30;;
50012;SDS011;35901;48.694;9.476;2023-05-10T07:30:43;1.40;;;1.30;;
50012;SDS011;35901;48.694;9.476;2023-05-10T07:33:09;2.10;;;1.40;;
50012;SDS011;35901;48.694;9.476;2023-05-10T07:35:37;2.10;;;1.50;;
50012;SDS011;35901;48.694;9.476;2023-05-10T07:38:03;1.20;;;1.20;;
50012;SDS011;35901;48.694;9.476;2023-05-10T07:40:28;1.50;;;1.40;;
50012;SDS011;35901;48.694;9.476;2023-05-10T07:42:54;1.97;;;1.50;;
50012;SDS011;35901;48.694;9.476;2023-05-10T07:45:20;3.83;;;1.40;;
50012;SDS011;35901;48.694;9.476;2023-05-10T07:47:46;1.47;;;1.30;;
50012;SDS011;35901;48.694;9.476;2023-05-10T07:50:12;1.50;;;1.17;;
50012;SDS011;35901;48.694;9.476;2023-05-10T07:52:38;1.87;;;1.27;;
50012;SDS011;35901;48.694;9.476;2023-05-10T07:55:03;1.63;;;1.20;;
50012;SDS011;35901;48.694;9.476;2023-05-10T07:57:30;2.10;;;1.07;;
50012;SDS011;35901;48.694;9.476;2023-05-10T07:59:56;1.47;;;1.37;;
50012;SDS011;35901;48.694;9.476;2023-05-10T08:02:21;2.27;;;1.30;;
50012;SDS011;35901;48.694;9.476;2023-05-10T08:04:47;1.20;;;1.20;;
50012;SDS011;35901;48.694;9.476;2023-05-10T08:07:12;1.47;;;1.37;;
50012;SDS011;35901;48.694;9.476;2023-05-10T08:09:38;3.17;;;1.40;;
50012;SDS011;35901;48.694;9.476;2023-05-10T08:12:05;1.37;;;1.10;;
50012;SDS011;35901;48.694;9.476;2023-05-10T08:14:31;1.30;;;1.20;;
50012;SDS011;35901;48.694;9.476;2023-05-10T08:16:56;1.30;;;1.10;;
50012;SDS011;35901;48.694;9.476;2023-05-10T08:19:22;1.93;;;1.20;;
50012;SDS011;35901;48.694;9.476;2023-05-10T08:21:48;1.57;;;1.37;;
50012;SDS011;35901;48.694;9.476;2023-05-10T08:24:14;1.60;;;1.30;;
50012;SDS011;35901;48.694;9.476;2023-05-10T08:26:40;1.20;;;1.10;;
50012;SDS011;35901;48.694;9.476;2023-05-10T08:29:06;1.13;;;1.00;;
50012;SDS011;35901;48.694;9.476;2023-05-10T08:31:31;1.00;;;1.00;;
50012;SDS011;35901;48.694;9.476;2023-05-10T08:33:57;1.93;;;1.10;;
50012;SDS011;35901;48.694;9.476;2023-05-10T08:36:23;1.30;;;1.03;;
50012;SDS011;35901;48.694;9.476;2023-05-10T08:38:52;0.90;;;0.90;;
50012;SDS011;35901;48.694;9.476;2023-05-10T08:41:22;1.23;;;0.83;;
50012;SDS011;35901;48.694;9.476;2023-05-10T08:43:50;2.17;;;0.90;;
50012;SDS011;35901;48.694;9.476;2023-05-10T08:46:17;0.77;;;0.77;;
50012;SDS011;35901;48.694;9.476;2023-05-10T08:48:44;1.13;;;0.93;;
50012;SDS011;35901;48.694;9.476;2023-05-10T08:51:16;1.90;;;1.00;;
50012;SDS011;35901;48.694;9.476;2023-05-10T08:53:44;1.10;;;1.00;;
50012;SDS011;35901;48.694;9.476;2023-05-10T08:56:11;1.50;;;0.83;;
50012;SDS011;35901;48.694;9.476;2023-05-10T08:58:37;1.90;;;0.97;;
50012;SDS011;35901;48.694;9.476;2023-05-10T09:01:03;1.10;;;1.00;;
50012;SDS011;35901;48.694;9.476;2023-05-10T09:03:30;0.90;;;0.90;;
50012;SDS011;35901;48.694;9.476;2023-05-10T09:05:57;0.97;;;0.97;;
50012;SDS011;35901;48.694;9.476;2023-05-10T09:08:23;1.17;;;0.90;;
50012;SDS011;35901;48.694;9.476;2023-05-10T09:10:52;0.93;;;0.93;;
50012;SDS011;35901;48.694;9.476;2023-05-10T09:13:18;1.23;;;1.10;;
50012;SDS011;35901;48.694;9.476;2023-05-10T09:15:46;1.60;;;0.90;;
50012;SDS011;35901;48.694;9.476;2023-05-10T09:18:13;0.93;;;0.90;;
50012;SDS011;35901;48.694;9.476;2023-05-10T09:20:39;1.10;;;1.00;;
50012;SDS011;35901;48.694;9.476;2023-05-10T09:23:05;2.57;;;1.00;;
50012;SDS011;35901;48.694;9.476;2023-05-10T09:25:31;0.93;;;0.80;;
50012;SDS011;35901;48.694;9.476;2023-05-10T09:28:00;0.80;;;0.80;;
50012;SDS011;35901;48.694;9.476;2023-05-10T09:30:27;1.13;;;0.90;;
50012;SDS011;35901;48.694;9.476;2023-05-10T09:32:55;1.17;;;1.07;;
50012;SDS011;35901;48.694;9.476;2023-05-10T09:35:25;1.10;;;1.00;;
50012;SDS011;35901;48.694;9.476;2023-05-10T09:37:52;1.13;;;0.97;;
50012;SDS011;35901;48.694;9.476;2023-05-10T09:40:20;0.80;;;0.80;;
50012;SDS011;35901;48.694;9.476;2023-05-10T09:43:29;0.70;;;0.70;;
50012;SDS011;35901;48.694;9.476;2023-05-10T09:45:36;1.13;;;0.80;;
50012;SDS011;35901;48.694;9.476;2023-05-10T09:48:02;1.00;;;1.00;;
50012;SDS011;35901;48.694;9.476;2023-05-10T09:50:29;1.03;;;0.93;;
50012;SDS011;35901;48.694;9.476;2023-05-10T09:52:56;1.43;;;0.87;;
50012;SDS011;35901;48.694;9.476;2023-05-10T09:55:42;1.47;;;0.80;;
50012;SDS011;35901;48.694;9.476;2023-05-10T09:58:14;3.77;;;0.90;;
50012;SDS011;35901;48.694;9.476;2023-05-10T10:00:40;1.00;;;1.00;;
50012;SDS011;35901;48.694;9.476;2023-05-10T10:03:12;0.80;;;0.80;;
50012;SDS011;35901;48.694;9.476;2023-05-10T10:05:45;1.40;;;1.20;;
50012;SDS011;35901;48.694;9.476;2023-05-10T10:08:12;0.80;;;0.80;;
50012;SDS011;35901;48.694;9.476;2023-05-10T10:10:39;5.80;;;1.10;;
50012;SDS011;35901;48.694;9.476;2023-05-10T10:13:05;2.33;;;0.83;;
50012;SDS011;35901;48.694;9.476;2023-05-10T10:15:32;0.90;;;0.90;;
50012;SDS011;35901;48.694;9.476;2023-05-10T10:17:59;3.33;;;1.00;;
50012;SDS011;35901;48.694;9.476;2023-05-10T10:20:26;1.40;;;1.30;;
50012;SDS011;35901;48.694;9.476;2023-05-10T10:22:55;2.40;;;1.10;;
50012;SDS011;35901;48.694;9.476;2023-05-10T10:25:21;1.00;;;1.00;;
50012;SDS011;35901;48.694;9.476;2023-05-10T10:35:23;1.17;;;1.07;;
50012;SDS011;35901;48.694;9.476;2023-05-10T10:37:50;1.37;;;1.03;;
50012;SDS011;35901;48.694;9.476;2023-05-10T10:40:34;1.23;;;0.90;;
50012;SDS011;35901;48.694;9.476;2023-05-10T10:43:42;2.10;;;1.07;;
50012;SDS011;35901;48.694;9.476;2023-05-10T10:46:12;1.10;;;1.00;;
50012;SDS011;35901;48.694;9.476;2023-05-10T10:48:37;2.00;;;1.00;;
50012;SDS011;35901;48.694;9.476;2023-05-10T10:51:03;2.13;;;1.10;;
50012;SDS011;35901;48.694;9.476;2023-05-10T10:53:29;1.00;;;0.90;;
50012;SDS011;35901;48.694;9.476;2023-05-10T10:56:04;0.90;;;0.90;;
50012;SDS011;35901;48.694;9.476;2023-05-10T10:58:33;3.83;;;1.07;;
50012;SDS011;35901;48.694;9.476;2023-05-10T11:01:15;1.37;;;1.10;;
50012;SDS011;35901;48.694;9.476;2023-05-10T11:04:16;1.23;;;1.10;;
50012;SDS011;35901;48.694;9.476;2023-05-10T11:06:43;1.53;;;1.10;;
50012;SDS011;35901;48.694;9.476;2023-05-10T11:09:10;1.30;;;0.80;;
50012;SDS011;35901;48.694;9.476;2023-05-10T11:11:48;2.13;;;1.10;;
50012;SDS011;35901;48.694;9.476;2023-05-10T11:14:18;1.43;;;0.80;;
50012;SDS011;35901;48.694;9.476;2023-05-10T11:16:46;0.80;;;0.80;;
50012;SDS011;35901;48.694;9.476;2023-05-10T11:19:12;0.90;;;0.90;;
50012;SDS011;35901;48.694;9.476;2023-05-10T11:21:44;2.47;;;0.90;;
50012;SDS011;35901;48.694;9.476;2023-05-10T11:24:14;1.10;;;0.90;;
50012;SDS011;35901;48.694;9.476;2023-05-10T11:26:44;1.83;;;1.13;;
50012;SDS011;35901;48.694;9.476;2023-05-10T11:29:11;1.10;;;1.00;;
50012;SDS011;35901;48.694;9.476;2023-05-10T11:31:42;1.57;;;1.20;;
50012;SDS011;35901;48.694;9.476;2023-05-10T11:34:12;1.00;;;1.00;;
50012;SDS011;35901;48.694;9.476;2023-05-10T11:36:52;1.63;;;1.10;;
50012;SDS011;35901;48.694;9.476;2023-05-10T11:39:19;1.27;;;1.17;;
50012;SDS011;35901;48.694;9.476;2023-05-10T11:41:49;1.30;;;1.00;;
50012;SDS011;35901;48.694;9.476;2023-05-10T11:44:15;2.30;;;1.30;;
50012;SDS011;35901;48.694;9.476;2023-05-10T11:46:41;1.27;;;1.20;;
50012;SDS011;35901;48.694;9.476;2023-05-10T11:49:07;2.37;;;1.10;;
50012;SDS011;35901;48.694;9.476;2023-05-10T11:51:34;1.73;;;1.17;;
50012;SDS011;35901;48.694;9.476;2023-05-10T11:54:08;2.67;;;1.10;;
50012;SDS011;35901;48.694;9.476;2023-05-10T11:56:35;2.67;;;1.20;;
50012;SDS011;35901;48.694;9.476;2023-05-10T11:59:01;1.17;;;1.07;;
50012;SDS011;35901;48.694;9.476;2023-05-10T12:01:28;1.10;;;1.10;;
50012;SDS011;35901;48.694;9.476;2023-05-10T12:03:54;2.13;;;1.00;;
50012;SDS011;35901;48.694;9.476;2023-05-10T12:06:25;3.87;;;1.10;;
50012;SDS011;35901;48.694;9.476;2023-05-10T12:08:52;1.97;;;0.87;;
50012;SDS011;35901;48.694;9.476;2023-05-10T12:11:18;2.17;;;1.33;;
50012;SDS011;35901;48.694;9.476;2023-05-10T12:13:46;1.83;;;1.17;;
50012;SDS011;35901;48.694;9.476;2023-05-10T12:16:24;1.43;;;1.00;;
50012;SDS011;35901;48.694;9.476;2023-05-10T12:18:53;1.40;;;0.90;;
50012;SDS011;35901;48.694;9.476;2023-05-10T12:21:22;1.10;;;1.00;;
50012;SDS011;35901;48.694;9.476;2023-05-10T12:23:51;1.90;;;1.20;;
50012;SDS011;35901;48.694;9.476;2023-05-10T12:26:21;2.33;;;1.37;;
50012;SDS011;35901;48.694;9.476;2023-05-10T12:28:47;9.50;;;1.70;;
50012;SDS011;35901;48.694;9.476;2023-05-10T12:31:13;1.30;;;1.20;;
50012;SDS011;35901;48.694;9.476;2023-05-10T12:33:40;1.70;;;1.60;;
50012;SDS011;35901;48.694;9.476;2023-05-10T12:36:08;3.07;;;1.27;;
50012;SDS011;35901;48.694;9.476;2023-05-10T12:38:39;3.97;;;1.40;;
50012;SDS011;35901;48.694;9.476;2023-05-10T12:41:12;4.07;;;1.50;;
50012;SDS011;35901;48.694;9.476;2023-05-10T12:43:38;3.43;;;1.40;;
50012;SDS011;35901;48.694;9.476;2023-05-10T12:46:09;3.17;;;1.30;;
50012;SDS011;35901;48.694;9.476;2023-05-10T12:48:35;1.77;;;1.40;;
50012;SDS011;35901;48.694;9.476;2023-05-10T12:51:01;1.43;;;1.33;;
50012;SDS011;35901;48.694;9.476;2023-05-10T12:53:28;1.37;;;1.27;;
50012;SDS011;35901;48.694;9.476;2023-05-10T12:55:53;2.87;;;1.50;;
50012;SDS011;35901;48.694;9.476;2023-05-10T12:58:19;3.23;;;1.37;;
50012;SDS011;35901;48.694;9.476;2023-05-10T13:00:45;1.67;;;1.30;;
50012;SDS011;35901;48.694;9.476;2023-05-10T13:03:11;1.23;;;1.20;;
50012;SDS011;35901;48.694;9.476;2023-05-10T13:05:37;3.00;;;1.27;;
50012;SDS011;35901;48.694;9.476;2023-05-10T13:08:03;2.60;;;1.30;;
50012;SDS011;35901;48.694;9.476;2023-05-10T13:10:30;3.53;;;1.43;;
50012;SDS011;35901;48.694;9.476;2023-05-10T13:12:56;2.47;;;1.47;;
50012;SDS011;35901;48.694;9.476;2023-05-10T13:15:25;2.03;;;1.63;;
50012;SDS011;35901;48.694;9.476;2023-05-10T13:17:53;2.47;;;1.53;;
50012;SDS011;35901;48.694;9.476;2023-05-10T13:20:19;1.60;;;1.37;;
50012;SDS011;35901;48.694;9.476;2023-05-10T13:22:45;1.80;;;1.60;;
50012;SDS011;35901;48.694;9.476;2023-05-10T13:25:11;2.70;;;1.50;;
50012;SDS011;35901;48.694;9.476;2023-05-10T13:27:40;2.93;;;1.50;;
50012;SDS011;35901;48.694;9.476;2023-05-10T13:30:06;1.43;;;1.30;;
50012;SDS011;35901;48.694;9.476;2023-05-10T13:32:33;3.10;;;1.67;;
50012;SDS011;35901;48.694;9.476;2023-05-10T13:34:59;1.80;;;1.50;;
50012;SDS011;35901;48.694;9.476;2023-05-10T13:37:25;2.03;;;1.30;;
50012;SDS011;35901;48.694;9.476;2023-05-10T13:39:51;1.37;;;1.27;;
50012;SDS011;35901;48.694;9.476;2023-05-10T13:42:17;2.60;;;1.80;;
50012;SDS011;35901;48.694;9.476;2023-05-10T13:44:43;2.87;;;1.37;;
50012;SDS011;35901;48.694;9.476;2023-05-10T13:47:09;1.70;;;1.20;;
50012;SDS011;35901;48.694;9.476;2023-05-10T13:49:36;1.30;;;1.20;;
50012;SDS011;35901;48.694;9.476;2023-05-10T13:52:02;2.57;;;1.33;;
50012;SDS011;35901;48.694;9.476;2023-05-10T13:54:32;1.97;;;1.20;;
50012;SDS011;35901;48.694;9.476;2023-05-10T13:57:01;1.30;;;1.20;;
50012;SDS011;35901;48.694;9.476;2023-05-10T13:59:26;1.53;;;1.10;;
50012;SDS011;35901;48.694;9.476;2023-05-10T14:01:53;1.27;;;1.17;;
50012;SDS011;35901;48.694;9.476;2023-05-10T14:04:19;1.97;;;1.30;;
50012;SDS011;35901;48.694;9.476;2023-05-10T14:06:45;1.33;;;1.10;;
50012;SDS011;35901;48.694;9.476;2023-05-10T14:09:11;2.60;;;1.20;;
50012;SDS011;35901;48.694;9.476;2023-05-10T14:11:37;1.43;;;1.23;;
50012;SDS011;35901;48.694;9.476;2023-05-10T14:14:06;1.37;;;1.23;;
50012;SDS011;35901;48.694;9.476;2023-05-10T14:16:33;1.37;;;1.27;;
50012;SDS011;35901;48.694;9.476;2023-05-10T14:18:58;2.00;;;1.37;;
50012;SDS011;35901;48.694;9.476;2023-05-10T14:21:24;1.67;;;1.20;;
50012;SDS011;35901;48.694;9.476;2023-05-10T14:23:49;1.33;;;1.20;;
50012;SDS011;35901;48.694;9.476;2023-05-10T14:26:15;1.13;;;1.13;;
50012;SDS011;35901;48.694;9.476;2023-05-10T14:28:41;1.90;;;1.27;;
50012;SDS011;35901;48.694;9.476;2023-05-10T14:31:06;1.00;;;1.00;;
50012;SDS011;35901;48.694;9.476;2023-05-10T14:33:32;1.50;;;1.10;;
50012;SDS011;35901;48.694;9.476;2023-05-10T14:35:58;1.33;;;1.10;;
50012;SDS011;35901;48.694;9.476;2023-05-10T14:38:24;1.63;;;1.23;;
50012;SDS011;35901;48.694;9.476;2023-05-10T14:40:51;1.23;;;1.10;;
50012;SDS011;35901;48.694;9.476;2023-05-10T14:43:17;1.30;;;1.20;;
50012;SDS011;35901;48.694;9.476;2023-05-10T14:45:43;1.83;;;1.23;;
50012;SDS011;35901;48.694;9.476;2023-05-10T14:48:10;1.40;;;1.30;;
50012;SDS011;35901;48.694;9.476;2023-05-10T14:50:40;1.70;;;1.33;;
50012;SDS011;35901;48.694;9.476;2023-05-10T14:53:06;2.73;;;1.20;;
50012;SDS011;35901;48.694;9.476;2023-05-10T14:55:31;1.63;;;1.07;;
50012;SDS011;35901;48.694;9.476;2023-05-10T14:57:57;2.20;;;1.10;;
50012;SDS011;35901;48.694;9.476;2023-05-10T15:00:23;1.10;;;1.00;;
50012;SDS011;35901;48.694;9.476;2023-05-10T15:02:49;2.40;;;1.10;;
50012;SDS011;35901;48.694;9.476;2023-05-10T15:05:15;1.90;;;1.13;;
50012;SDS011;35901;48.694;9.476;2023-05-10T15:07:40;1.53;;;1.17;;
50012;SDS011;35901;48.694;9.476;2023-05-10T15:10:09;1.23;;;0.90;;
50012;SDS011;35901;48.694;9.476;2023-05-10T15:12:35;1.37;;;1.07;;
50012;SDS011;35901;48.694;9.476;2023-05-10T15:15:01;1.47;;;1.10;;
50012;SDS011;35901;48.694;9.476;2023-05-10T15:17:27;1.47;;;1.10;;